sensor_id;sensor_type;location;lat;lon;timestamp;P1;P2;P0
45788;PMS7003;31492;54.856;26.318;2023-03-01T00:01:12;1.5;1.4;1.1
45788;PMS7003;31492;54.856;26.318;2023-03-01T00:06:26;2.1;1.4;1.3
45788;PMS7003;31492;54.856;26.318;2023-03-01T00:11:30;2.5;2.1;1.6
45788;PMS7003;31492;54.856;26.318;2023-03-01T00:16:24;2.5;1.6;1.2
45788;PMS7003;31492;54.856;26.318;2023-03-01T00:21:29;1.8;1.7;1.3
45788;PMS7003;31492;54.856;26.318;2023-03-01T00:26:25;2.6;1.6;1.1
45788;PMS7003;31492;54.856;26.318;2023-03-01T00:31:26;2.7;1.6;1.1
45788;PMS7003;31492;54.856;26.318;2023-03-01T00:36:17;2.1;1.8;1.3
45788;PMS7003;31492;54.856;26.318;2023-03-01T00:41:12;2;1.7;1.4
45788;PMS7003;31492;54.856;26.318;2023-03-01T00:46:33;2.1;1.6;1.2
45788;PMS7003;31492;54.856;26.318;2023-03-01T00:51:21;2.4;1.6;1.3
45788;PMS7003;31492;54.856;26.318;2023-03-01T00:56:19;1.7;1.4;1
45788;PMS7003;31492;54.856;26.318;2023-03-01T01:01:12;1.9;1.5;1.1
45788;PMS7003;31492;54.856;26.318;2023-03-01T01:06:18;1.3;1;0.8
45788;PMS7003;31492;54.856;26.318;2023-03-01T01:11:48;1.7;1.2;0.8
45788;PMS7003;31492;54.856;26.318;2023-03-01T01:16:26;1.3;1;0.5
45788;PMS7003;31492;54.856;26.318;2023-03-01T01:21:33;1.5;1.2;0.9
45788;PMS7003;31492;54.856;26.318;2023-03-01T01:26:12;2.2;1.4;1
45788;PMS7003;31492;54.856;26.318;2023-03-01T01:31:11;2;1.1;0.8
45788;PMS7003;31492;54.856;26.318;2023-03-01T01:36:23;2.2;0.8;0.8
45788;PMS7003;31492;54.856;26.318;2023-03-01T01:41:12;1.3;1.1;0.8
45788;PMS7003;31492;54.856;26.318;2023-03-01T01:46:26;1.7;1;0.5
45788;PMS7003;31492;54.856;26.318;2023-03-01T01:51:12;1.8;0.9;0.7
45788;PMS7003;31492;54.856;26.318;2023-03-01T01:56:23;1.2;0.8;0.6
45788;PMS7003;31492;54.856;26.318;2023-03-01T02:01:33;1;0.9;0.7
45788;PMS7003;31492;54.856;26.318;2023-03-01T02:06:12;1;0.9;0.6
45788;PMS7003;31492;54.856;26.318;2023-03-01T02:11:33;1.4;0.7;0.3
45788;PMS7003;31492;54.856;26.318;2023-03-01T02:16:12;1.2;0.8;0.5
45788;PMS7003;31492;54.856;26.318;2023-03-01T02:21:14;1.9;1;0.6
45788;PMS7003;31492;54.856;26.318;2023-03-01T02:26:24;1.4;0.8;0.6
45788;PMS7003;31492;54.856;26.318;2023-03-01T02:31:25;0.9;0.5;0.4
45788;PMS7003;31492;54.856;26.318;2023-03-01T02:36:12;1;0.6;0.2
45788;PMS7003;31492;54.856;26.318;2023-03-01T02:41:19;0.7;0.5;0.3
45788;PMS7003;31492;54.856;26.318;2023-03-01T02:46:18;1.7;1;0.4
45788;PMS7003;31492;54.856;26.318;2023-03-01T02:51:21;1.1;0.6;0.2
45788;PMS7003;31492;54.856;26.318;2023-03-01T02:56:55;0.9;0.5;0.3
45788;PMS7003;31492;54.856;26.318;2023-03-01T03:01:33;1.3;0.7;0.5
45788;PMS7003;31492;54.856;26.318;2023-03-01T03:06:11;1.1;0.6;0.4
45788;PMS7003;31492;54.856;26.318;2023-03-01T03:11:29;0.9;0.5;0.3
45788;PMS7003;31492;54.856;26.318;2023-03-01T03:16:17;0.9;0.6;0.3
45788;PMS7003;31492;54.856;26.318;2023-03-01T03:21:12;0.8;0.4;0.2
45788;PMS7003;31492;54.856;26.318;2023-03-01T03:26:34;1;0.4;0.2
45788;PMS7003;31492;54.856;26.318;2023-03-01T03:31:39;0.5;0.3;0
45788;PMS7003;31492;54.856;26.318;2023-03-01T03:36:23;0.4;0.2;0
45788;PMS7003;31492;54.856;26.318;2023-03-01T03:41:29;0.8;0.3;0.1
45788;PMS7003;31492;54.856;26.318;2023-03-01T03:46:11;0.6;0.3;0.1
45788;PMS7003;31492;54.856;26.318;2023-03-01T03:51:12;0.8;0.6;0.3
45788;PMS7003;31492;54.856;26.318;2023-03-01T03:56:17;0.5;0.2;0
45788;PMS7003;31492;54.856;26.318;2023-03-01T04:01:11;0.7;0.2;0
45788;PMS7003;31492;54.856;26.318;2023-03-01T04:06:11;1.1;0.2;0.1
45788;PMS7003;31492;54.856;26.318;2023-03-01T04:11:11;0.4;0.1;0
45788;PMS7003;31492;54.856;26.318;2023-03-01T04:16:33;0.3;0.1;0
45788;PMS7003;31492;54.856;26.318;2023-03-01T04:21:20;0.5;0.2;0.1
45788;PMS7003;31492;54.856;26.318;2023-03-01T04:26:29;0.5;0.1;0
45788;PMS7003;31492;54.856;26.318;2023-03-01T04:31:18;0.4;0.2;0
45788;PMS7003;31492;54.856;26.318;2023-03-01T04:36:12;0.7;0.4;0.1
45788;PMS7003;31492;54.856;26.318;2023-03-01T04:41:11;0.7;0.4;0.1
45788;PMS7003;31492;54.856;26.318;2023-03-01T04:46:12;0.6;0.3;0.1
45788;PMS7003;31492;54.856;26.318;2023-03-01T04:51:23;0.5;0.3;0.1
45788;PMS7003;31492;54.856;26.318;2023-03-01T04:56:17;0.8;0.2;0.1
45788;PMS7003;31492;54.856;26.318;2023-03-01T05:01:31;0.4;0.3;0.1
45788;PMS7003;31492;54.856;26.318;2023-03-01T05:06:19;0.6;0.2;0
45788;PMS7003;31492;54.856;26.318;2023-03-01T05:11:25;0.5;0.1;0
45788;PMS7003;31492;54.856;26.318;2023-03-01T05:16:17;0.7;0.1;0
45788;PMS7003;31492;54.856;26.318;2023-03-01T05:21:12;0.6;0.2;0
45788;PMS7003;31492;54.856;26.318;2023-03-01T05:26:18;0.2;0.1;0
45788;PMS7003;31492;54.856;26.318;2023-03-01T05:31:11;0.4;0.2;0
45788;PMS7003;31492;54.856;26.318;2023-03-01T05:36:11;0.9;0.2;0.1
45788;PMS7003;31492;54.856;26.318;2023-03-01T05:41:13;0.4;0.1;0
45788;PMS7003;31492;54.856;26.318;2023-03-01T05:46:11;0.8;0.2;0.1
45788;PMS7003;31492;54.856;26.318;2023-03-01T05:51:11;0.4;0.2;0
45788;PMS7003;31492;54.856;26.318;2023-03-01T05:56:11;0.6;0.1;0
45788;PMS7003;31492;54.856;26.318;2023-03-01T06:01:19;0.4;0.3;0.2
45788;PMS7003;31492;54.856;26.318;2023-03-01T06:06:11;0.8;0.4;0.1
45788;PMS7003;31492;54.856;26.318;2023-03-01T06:11:19;0.7;0.3;0
45788;PMS7003;31492;54.856;26.318;2023-03-01T06:16:31;0.5;0.1;0.1
45788;PMS7003;31492;54.856;26.318;2023-03-01T06:21:25;0.6;0.2;0
45788;PMS7003;31492;54.856;26.318;2023-03-01T06:26:19;0.3;0.1;0.1
45788;PMS7003;31492;54.856;26.318;2023-03-01T06:31:57;0.6;0.1;0
45788;PMS7003;31492;54.856;26.318;2023-03-01T06:36:19;0.6;0.1;0
45788;PMS7003;31492;54.856;26.318;2023-03-01T06:41:11;0.8;0.2;0
45788;PMS7003;31492;54.856;26.318;2023-03-01T06:46:25;0.4;0.2;0
45788;PMS7003;31492;54.856;26.318;2023-03-01T06:51:11;0.6;0.3;0
45788;PMS7003;31492;54.856;26.318;2023-03-01T06:56:23;1;0.3;0.2
45788;PMS7003;31492;54.856;26.318;2023-03-01T07:01:11;1.4;0.4;0.1
45788;PMS7003;31492;54.856;26.318;2023-03-01T07:06:33;1;0.5;0.2
45788;PMS7003;31492;54.856;26.318;2023-03-01T07:11:25;1.7;0.7;0.3
45788;PMS7003;31492;54.856;26.318;2023-03-01T07:16:11;1.1;0.7;0.5
45788;PMS7003;31492;54.856;26.318;2023-03-01T07:21:23;1.2;0.9;0.6
45788;PMS7003;31492;54.856;26.318;2023-03-01T07:26:33;1.6;0.8;0.4
45788;PMS7003;31492;54.856;26.318;2023-03-01T07:31:11;0.4;0.3;0.2
45788;PMS7003;31492;54.856;26.318;2023-03-01T07:36:25;0.7;0.5;0.1
45788;PMS7003;31492;54.856;26.318;2023-03-01T07:41:25;0.9;0.2;0.1
45788;PMS7003;31492;54.856;26.318;2023-03-01T07:46:33;0.9;0.6;0.2
45788;PMS7003;31492;54.856;26.318;2023-03-01T07:51:33;0.7;0.3;0
45788;PMS7003;31492;54.856;26.318;2023-03-01T07:56:33;0.8;0.5;0.1
45788;PMS7003;31492;54.856;26.318;2023-03-01T08:01:12;1.6;0.5;0.1
45788;PMS7003;31492;54.856;26.318;2023-03-01T08:06:12;0.9;0.5;0.1
45788;PMS7003;31492;54.856;26.318;2023-03-01T08:11:33;1;0.4;0.1
45788;PMS7003;31492;54.856;26.318;2023-03-01T08:16:21;1.2;0.4;0.1
45788;PMS7003;31492;54.856;26.318;2023-03-01T08:21:21;0.7;0.5;0.1
45788;PMS7003;31492;54.856;26.318;2023-03-01T08:26:12;0.9;0.5;0.2
45788;PMS7003;31492;54.856;26.318;2023-03-01T08:31:34;1.5;0.4;0.1
45788;PMS7003;31492;54.856;26.318;2023-03-01T08:36:35;0.9;0.6;0.3
45788;PMS7003;31492;54.856;26.318;2023-03-01T08:41:11;1.4;0.5;0.3
45788;PMS7003;31492;54.856;26.318;2023-03-01T08:46:23;1;0.8;0.3
45788;PMS7003;31492;54.856;26.318;2023-03-01T08:51:12;1.3;0.7;0.2
45788;PMS7003;31492;54.856;26.318;2023-03-01T08:56:31;1.1;0.6;0.3
45788;PMS7003;31492;54.856;26.318;2023-03-01T09:01:23;0.7;0.3;0.1
45788;PMS7003;31492;54.856;26.318;2023-03-01T09:06:33;1;0.3;0
45788;PMS7003;31492;54.856;26.318;2023-03-01T09:11:12;0.7;0.5;0
45788;PMS7003;31492;54.856;26.318;2023-03-01T09:16:25;1;0.4;0.2
45788;PMS7003;31492;54.856;26.318;2023-03-01T09:21:33;0.3;0.1;0
45788;PMS7003;31492;54.856;26.318;2023-03-01T09:26:25;0.5;0.2;0
45788;PMS7003;31492;54.856;26.318;2023-03-01T09:31:22;0.4;0;0
45788;PMS7003;31492;54.856;26.318;2023-03-01T09:36:20;1.1;0.3;0
45788;PMS7003;31492;54.856;26.318;2023-03-01T09:41:28;0.5;0.2;0
45788;PMS7003;31492;54.856;26.318;2023-03-01T09:46:29;0.6;0.1;0
45788;PMS7003;31492;54.856;26.318;2023-03-01T09:51:12;0.6;0.1;0
45788;PMS7003;31492;54.856;26.318;2023-03-01T09:56:27;0.1;0;0
45788;PMS7003;31492;54.856;26.318;2023-03-01T10:01:18;0.5;0;0
45788;PMS7003;31492;54.856;26.318;2023-03-01T10:06:12;0.6;0.1;0
45788;PMS7003;31492;54.856;26.318;2023-03-01T10:11:17;0.5;0;0
45788;PMS7003;31492;54.856;26.318;2023-03-01T10:16:38;0.6;0.3;0
45788;PMS7003;31492;54.856;26.318;2023-03-01T10:21:21;0.2;0.2;0.1
45788;PMS7003;31492;54.856;26.318;2023-03-01T10:26:16;0.3;0.3;0
45788;PMS7003;31492;54.856;26.318;2023-03-01T10:31:24;0.8;0.2;0
45788;PMS7003;31492;54.856;26.318;2023-03-01T10:36:19;0.9;0.2;0
45788;PMS7003;31492;54.856;26.318;2023-03-01T10:41:24;0.8;0.2;0
45788;PMS7003;31492;54.856;26.318;2023-03-01T10:46:22;0.4;0.1;0.1
45788;PMS7003;31492;54.856;26.318;2023-03-01T10:51:12;0.6;0.1;0
45788;PMS7003;31492;54.856;26.318;2023-03-01T10:56:23;0.6;0.3;0
45788;PMS7003;31492;54.856;26.318;2023-03-01T11:01:24;0.6;0.2;0
45788;PMS7003;31492;54.856;26.318;2023-03-01T11:06:23;0.3;0;0
45788;PMS7003;31492;54.856;26.318;2023-03-01T11:11:34;1;0.3;0
45788;PMS7003;31492;54.856;26.318;2023-03-01T11:16:11;0.2;0.1;0
45788;PMS7003;31492;54.856;26.318;2023-03-01T11:21:24;0.8;0.3;0
45788;PMS7003;31492;54.856;26.318;2023-03-01T11:26:19;0.6;0.3;0
45788;PMS7003;31492;54.856;26.318;2023-03-01T11:31:35;0.9;0.4;0.1
45788;PMS7003;31492;54.856;26.318;2023-03-01T11:36:15;0.7;0.1;0
45788;PMS7003;31492;54.856;26.318;2023-03-01T11:41:12;0.2;0.1;0
45788;PMS7003;31492;54.856;26.318;2023-03-01T11:46:46;0.2;0.1;0
45788;PMS7003;31492;54.856;26.318;2023-03-01T17:28:31;1.8;1.2;0.9
45788;PMS7003;31492;54.856;26.318;2023-03-01T17:33:22;1.7;0.7;0.5
45788;PMS7003;31492;54.856;26.318;2023-03-01T17:38:40;1.1;0.9;0.1
45788;PMS7003;31492;54.856;26.318;2023-03-01T17:43:22;1.3;0.7;0.5
45788;PMS7003;31492;54.856;26.318;2023-03-01T17:48:34;1.3;0.7;0.5
45788;PMS7003;31492;54.856;26.318;2023-03-01T17:53:52;7.7;5.6;4.3
45788;PMS7003;31492;54.856;26.318;2023-03-01T17:58:46;2.2;1.3;0.9
45788;PMS7003;31492;54.856;26.318;2023-03-01T18:03:32;2.7;1.7;1.1
45788;PMS7003;31492;54.856;26.318;2023-03-01T18:08:34;1.8;1.4;1.1
45788;PMS7003;31492;54.856;26.318;2023-03-01T18:13:22;1.9;1.9;1.5
45788;PMS7003;31492;54.856;26.318;2023-03-01T18:18:30;1.5;0.6;0.2
45788;PMS7003;31492;54.856;26.318;2023-03-01T18:23:22;1.8;1.1;0.6
45788;PMS7003;31492;54.856;26.318;2023-03-01T18:28:32;1.5;0.9;0.4
45788;PMS7003;31492;54.856;26.318;2023-03-01T18:33:34;1;0.7;0.5
45788;PMS7003;31492;54.856;26.318;2023-03-01T18:38:22;1;0.6;0.4
45788;PMS7003;31492;54.856;26.318;2023-03-01T18:43:46;1.1;0.6;0.3
45788;PMS7003;31492;54.856;26.318;2023-03-01T18:48:23;0.8;0.4;0.2
45788;PMS7003;31492;54.856;26.318;2023-03-01T18:53:40;1.4;0.7;0.4
45788;PMS7003;31492;54.856;26.318;2023-03-01T18:58:35;1.4;0.8;0.4
45788;PMS7003;31492;54.856;26.318;2023-03-01T19:03:32;1.3;0.9;0.7
45788;PMS7003;31492;54.856;26.318;2023-03-01T19:08:22;1.3;0.9;0.7
45788;PMS7003;31492;54.856;26.318;2023-03-01T19:13:22;1.3;0.9;0.7
45788;PMS7003;31492;54.856;26.318;2023-03-01T19:18:41;2.1;1.1;0.7
45788;PMS7003;31492;54.856;26.318;2023-03-01T19:23:35;0.8;0.7;0.5
45788;PMS7003;31492;54.856;26.318;2023-03-01T20:28:34;0.8;0.7;0.5
45788;PMS7003;31492;54.856;26.318;2023-03-01T20:33:46;2.1;1.1;1
45788;PMS7003;31492;54.856;26.318;2023-03-01T20:58:40;1.9;1.5;1
45788;PMS7003;31492;54.856;26.318;2023-03-01T21:03:32;1.9;1.5;1
45788;PMS7003;31492;54.856;26.318;2023-03-01T21:18:22;2.3;2.3;1.4
45788;PMS7003;31492;54.856;26.318;2023-03-01T21:23:22;3.8;2.4;2.1
45788;PMS7003;31492;54.856;26.318;2023-03-01T21:28:34;3.8;2.4;2.1
45788;PMS7003;31492;54.856;26.318;2023-03-01T21:58:22;3.8;2.4;2.1
45788;PMS7003;31492;54.856;26.318;2023-03-01T22:03:30;3.8;2.4;2.1
